createdAt,value
2023-02-19T00:01:31.092Z,5.53
2023-02-19T00:03:28.868Z,5.53
2023-02-19T00:04:03.597Z,5.10
2023-02-19T00:06:33.101Z,6.50
2023-02-19T00:08:28.821Z,6.50
2023-02-19T00:09:00.331Z,6.05
2023-02-19T00:11:29.741Z,6.00
2023-02-19T00:13:28.815Z,6.00
2023-02-19T00:13:58.762Z,5.35
2023-02-19T00:16:39.039Z,5.30
2023-02-19T00:18:28.855Z,5.30
2023-02-19T00:19:08.576Z,5.70
2023-02-19T00:21:35.071Z,5.40
2023-02-19T00:23:28.961Z,5.40
2023-02-19T00:24:04.523Z,5.40
2023-02-19T00:26:31.758Z,12.13
2023-02-19T00:28:28.975Z,12.13
2023-02-19T00:28:58.536Z,5.22
2023-02-19T00:31:28.688Z,6.07
2023-02-19T00:33:28.819Z,6.07
2023-02-19T00:33:58.623Z,5.32
2023-02-19T00:36:26.689Z,5.47
2023-02-19T00:38:28.935Z,5.47
2023-02-19T00:38:54.244Z,5.82
2023-02-19T00:41:22.250Z,6.00
2023-02-19T00:43:28.853Z,6.00
2023-02-19T00:43:49.746Z,5.18
2023-02-19T00:46:18.286Z,6.00
2023-02-19T00:48:28.817Z,6.00
2023-02-19T00:48:44.778Z,5.80
2023-02-19T00:51:11.681Z,5.53
2023-02-19T00:53:28.838Z,5.53
2023-02-19T00:53:39.150Z,6.07
2023-02-19T00:56:06.630Z,5.68
2023-02-19T00:58:28.846Z,5.68
2023-02-19T00:58:33.586Z,6.18
2023-02-19T01:01:00.514Z,7.18
2023-02-19T01:03:28.153Z,16.33
2023-02-19T01:03:28.830Z,16.33
2023-02-19T01:05:54.872Z,6.50
2023-02-19T01:08:21.657Z,5.97
2023-02-19T01:08:28.849Z,5.97
2023-02-19T01:10:48.063Z,5.55
2023-02-19T01:13:14.914Z,6.22
2023-02-19T01:13:28.869Z,6.22
2023-02-19T01:15:41.319Z,5.80
2023-02-19T01:18:07.765Z,5.38
2023-02-19T01:18:28.844Z,5.38
2023-02-19T01:20:34.162Z,5.25
2023-02-19T01:23:00.677Z,5.10
2023-02-19T01:23:28.846Z,5.10
2023-02-19T01:25:27.106Z,5.90
2023-02-19T01:27:53.746Z,6.25
2023-02-19T01:28:28.953Z,6.25
2023-02-19T01:30:20.438Z,5.43
2023-02-19T01:32:46.890Z,5.88
2023-02-19T01:33:28.907Z,5.88
2023-02-19T01:35:13.408Z,5.57
2023-02-19T01:37:39.793Z,6.93
2023-02-19T01:38:28.917Z,6.93
2023-02-19T01:40:07.314Z,6.13
2023-02-19T01:42:33.739Z,5.40
2023-02-19T01:43:28.899Z,5.40
2023-02-19T01:45:21.476Z,12.70
2023-02-19T01:47:54.462Z,6.82
2023-02-19T01:48:28.890Z,6.82
2023-02-19T01:50:20.933Z,5.43
2023-02-19T01:52:47.532Z,7.05
2023-02-19T01:53:28.886Z,7.05
2023-02-19T01:55:14.268Z,7.65
2023-02-19T01:57:46.607Z,5.45
2023-02-19T01:58:28.884Z,5.45
2023-02-19T02:00:15.930Z,5.40
2023-02-19T02:02:45.080Z,7.15
2023-02-19T02:03:28.895Z,7.15
2023-02-19T02:05:23.013Z,5.63
2023-02-19T02:08:08.500Z,6.75
2023-02-19T02:08:28.925Z,6.75
2023-02-19T02:10:34.977Z,6.43
2023-02-19T02:13:01.338Z,6.45
2023-02-19T02:13:28.889Z,6.45
2023-02-19T02:15:36.698Z,5.50
2023-02-19T02:18:11.071Z,6.80
2023-02-19T02:18:28.917Z,6.80
2023-02-19T02:20:43.095Z,5.55
2023-02-19T02:23:10.035Z,8.05
2023-02-19T02:23:28.913Z,8.05
2023-02-19T02:25:58.191Z,6.55
2023-02-19T02:28:40.870Z,6.45
2023-02-19T02:28:41.031Z,6.45
2023-02-19T02:31:15.276Z,5.85
2023-02-19T02:33:28.902Z,5.85
2023-02-19T02:33:53.423Z,6.88
2023-02-19T02:36:26.926Z,5.85
2023-02-19T02:38:28.925Z,5.85
2023-02-19T02:38:54.464Z,6.35
2023-02-19T02:41:21.516Z,7.05
2023-02-19T02:43:29.018Z,7.05
2023-02-19T02:43:48.003Z,6.13
2023-02-19T02:46:20.155Z,5.93
2023-02-19T02:48:29.084Z,5.93
2023-02-19T02:48:54.076Z,7.45
2023-02-19T02:51:27.937Z,5.57
2023-02-19T02:53:28.874Z,5.57
2023-02-19T02:54:21.840Z,7.07
2023-02-19T02:56:50.194Z,5.63
2023-02-19T02:58:28.904Z,5.63
2023-02-19T02:59:21.429Z,6.03
2023-02-19T03:02:12.322Z,8.63
2023-02-19T03:03:28.927Z,8.63
2023-02-19T03:05:13.348Z,8.65
2023-02-19T03:08:00.744Z,6.07
2023-02-19T03:08:28.873Z,6.07
2023-02-19T03:10:45.965Z,6.50
2023-02-19T03:13:54.800Z,8.98
2023-02-19T03:13:54.959Z,8.98
2023-02-19T03:16:45.220Z,6.05
2023-02-19T03:18:28.893Z,6.05
2023-02-19T03:19:21.686Z,9.15
2023-02-19T03:21:53.191Z,6.40
2023-02-19T03:23:28.902Z,6.40
2023-02-19T03:24:42.729Z,7.18
2023-02-19T03:27:11.781Z,7.80
2023-02-19T03:28:28.943Z,7.80
2023-02-19T03:29:41.108Z,6.63
2023-02-19T03:32:18.672Z,6.25
2023-02-19T03:33:28.927Z,6.25
2023-02-19T03:34:51.729Z,6.55
2023-02-19T03:37:37.038Z,7.68
2023-02-19T03:38:28.895Z,7.68
2023-02-19T03:40:04.518Z,6.22
2023-02-19T03:43:01.664Z,7.35
2023-02-19T03:43:28.903Z,7.35
2023-02-19T03:45:51.232Z,9.93
2023-02-19T03:48:38.510Z,7.82
2023-02-19T03:48:38.669Z,7.82
2023-02-19T03:51:41.047Z,7.00
2023-02-19T03:53:28.941Z,7.00
2023-02-19T03:54:18.509Z,7.75
2023-02-19T03:56:53.887Z,7.15
2023-02-19T03:58:28.909Z,7.15
2023-02-19T03:59:39.051Z,7.72
2023-02-19T04:02:14.748Z,12.23
2023-02-19T04:03:28.924Z,12.23
2023-02-19T04:04:47.358Z,10.15
2023-02-19T04:08:28.909Z,9.47
2023-02-19T04:09:45.380Z,6.25
2023-02-19T04:12:14.282Z,7.35
2023-02-19T04:13:28.901Z,7.35
2023-02-19T04:15:00.733Z,7.75
2023-02-19T04:17:33.799Z,7.35
2023-02-19T04:18:28.917Z,7.35
2023-02-19T04:20:06.108Z,11.10
2023-02-19T04:22:33.842Z,7.00
2023-02-19T04:23:28.917Z,7.00
2023-02-19T04:25:00.864Z,13.85
2023-02-19T04:27:27.530Z,7.90
2023-02-19T04:28:28.958Z,7.90
2023-02-19T04:29:53.957Z,7.60
2023-02-19T04:32:20.326Z,11.23
2023-02-19T04:33:28.975Z,11.23
2023-02-19T04:34:46.726Z,6.47
2023-02-19T04:37:13.328Z,6.80
2023-02-19T04:38:28.909Z,6.80
2023-02-19T04:39:39.862Z,9.45
2023-02-19T04:42:06.269Z,5.60
2023-02-19T04:43:28.905Z,5.60
2023-02-19T04:44:35.497Z,6.55
2023-02-19T04:47:01.892Z,8.02
2023-02-19T04:48:28.922Z,8.02
2023-02-19T04:49:28.243Z,5.53
2023-02-19T04:51:54.882Z,6.20
2023-02-19T04:53:28.892Z,6.20
2023-02-19T04:54:21.239Z,6.68
2023-02-19T04:56:47.546Z,6.68
2023-02-19T04:58:28.935Z,6.68
2023-02-19T04:59:14.042Z,9.00
2023-02-19T05:01:40.409Z,7.40
2023-02-19T05:03:28.899Z,7.40
2023-02-19T05:04:06.862Z,6.93
2023-02-19T05:06:33.270Z,6.70
2023-02-19T05:08:28.910Z,6.70
2023-02-19T05:08:59.615Z,8.40
2023-02-19T05:11:26.010Z,5.88
2023-02-19T05:13:28.914Z,5.88
2023-02-19T05:13:52.502Z,9.20
2023-02-19T05:16:18.978Z,7.50
2023-02-19T05:18:28.902Z,7.50
2023-02-19T05:18:46.724Z,10.73
2023-02-19T05:21:13.962Z,7.30
2023-02-19T05:23:28.921Z,7.30
2023-02-19T05:23:41.307Z,9.05
2023-02-19T05:26:19.107Z,7.72
2023-02-19T05:28:28.974Z,7.72
2023-02-19T05:28:47.539Z,8.43
2023-02-19T05:31:14.883Z,8.20
2023-02-19T05:33:28.886Z,8.20
2023-02-19T05:33:43.046Z,7.03
2023-02-19T05:36:12.782Z,8.23
2023-02-19T05:38:29.009Z,8.23
2023-02-19T05:38:40.322Z,9.15
2023-02-19T05:41:13.629Z,6.47
2023-02-19T05:43:28.903Z,6.47
2023-02-19T05:43:40.982Z,10.20
2023-02-19T05:46:08.630Z,8.05
2023-02-19T05:48:28.914Z,8.05
2023-02-19T05:48:35.085Z,9.60
2023-02-19T05:51:07.254Z,10.23
2023-02-19T05:53:28.885Z,10.23
2023-02-19T05:53:34.162Z,8.20
2023-02-19T05:56:00.924Z,15.10
2023-02-19T05:58:28.428Z,7.65
2023-02-19T05:58:28.911Z,7.65
2023-02-19T06:00:55.058Z,13.80
2023-02-19T06:03:22.251Z,11.15
2023-02-19T06:03:29.080Z,11.15
2023-02-19T06:05:48.756Z,7.30
2023-02-19T06:08:15.981Z,8.50
2023-02-19T06:08:28.999Z,8.50
2023-02-19T06:10:44.117Z,14.18
2023-02-19T06:13:10.904Z,8.55
2023-02-19T06:13:28.905Z,8.55
2023-02-19T06:15:37.859Z,11.80
2023-02-19T06:18:04.416Z,6.97
2023-02-19T06:18:29.031Z,6.97
2023-02-19T06:20:30.770Z,10.32
2023-02-19T06:22:57.701Z,8.05
2023-02-19T06:23:28.913Z,8.05
2023-02-19T06:25:24.272Z,15.02
2023-02-19T06:27:50.669Z,9.23
2023-02-19T06:28:29.018Z,9.23
2023-02-19T06:30:17.359Z,6.65
2023-02-19T06:32:43.770Z,6.22
2023-02-19T06:33:28.941Z,6.22
2023-02-19T06:35:10.085Z,9.85
2023-02-19T06:37:36.576Z,9.73
2023-02-19T06:38:28.904Z,9.73
2023-02-19T06:40:03.042Z,7.20
2023-02-19T06:42:34.054Z,9.38
2023-02-19T06:43:28.909Z,9.38
2023-02-19T06:45:00.550Z,15.68
2023-02-19T06:47:30.136Z,11.73
2023-02-19T06:48:28.931Z,11.73
2023-02-19T06:49:56.573Z,6.95
2023-02-19T06:52:22.968Z,6.45
2023-02-19T06:53:28.908Z,6.45
2023-02-19T06:54:49.455Z,19.25
2023-02-19T06:57:15.921Z,7.68
2023-02-19T06:58:28.907Z,7.68
2023-02-19T06:59:42.345Z,6.35
2023-02-19T07:02:11.566Z,15.18
2023-02-19T07:03:28.915Z,15.18
2023-02-19T07:04:38.088Z,8.38
2023-02-19T07:07:05.063Z,5.85
2023-02-19T07:08:29.728Z,5.85
2023-02-19T07:09:32.942Z,5.95
2023-02-19T07:11:59.276Z,6.93
2023-02-19T07:13:28.948Z,6.93
2023-02-19T07:14:28.414Z,8.38
2023-02-19T07:16:54.809Z,7.72
2023-02-19T07:18:28.895Z,7.72
2023-02-19T07:19:21.300Z,7.60
2023-02-19T07:21:47.674Z,6.55
2023-02-19T07:23:28.936Z,6.55
2023-02-19T07:24:14.202Z,7.18
2023-02-19T07:26:40.602Z,8.82
2023-02-19T07:28:28.900Z,8.82
2023-02-19T07:29:07.493Z,7.43
2023-02-19T07:31:34.015Z,7.43
2023-02-19T07:33:28.903Z,7.43
2023-02-19T07:34:00.530Z,5.85
2023-02-19T07:36:29.062Z,7.13
2023-02-19T07:38:28.919Z,7.13
2023-02-19T07:38:59.732Z,8.95
2023-02-19T07:41:27.007Z,7.53
2023-02-19T07:43:28.899Z,7.53
2023-02-19T07:43:54.290Z,7.18
2023-02-19T07:46:21.813Z,7.28
2023-02-19T07:48:28.912Z,7.28
2023-02-19T07:48:48.355Z,6.57
2023-02-19T07:51:18.948Z,9.80
2023-02-19T07:53:28.934Z,9.80
2023-02-19T07:53:46.624Z,6.55
2023-02-19T07:56:13.271Z,6.30
2023-02-19T07:58:28.949Z,6.30
2023-02-19T07:58:40.520Z,5.60
2023-02-19T08:01:18.663Z,9.70
2023-02-19T08:03:29.112Z,9.70
2023-02-19T08:03:45.627Z,12.52
2023-02-19T08:06:12.285Z,7.68
2023-02-19T08:08:28.947Z,7.68
2023-02-19T08:08:39.844Z,5.65
2023-02-19T08:11:25.384Z,6.43
2023-02-19T08:13:28.905Z,6.43
2023-02-19T08:13:53.052Z,6.95
2023-02-19T08:16:33.224Z,7.53
2023-02-19T08:18:28.903Z,7.53
2023-02-19T08:19:06.771Z,5.93
2023-02-19T08:21:34.368Z,11.05
2023-02-19T08:23:28.902Z,11.05
2023-02-19T08:24:00.888Z,5.45
2023-02-19T08:26:27.311Z,11.32
2023-02-19T08:28:28.952Z,11.32
2023-02-19T08:28:53.638Z,10.30
2023-02-19T08:31:20.053Z,6.00
2023-02-19T08:33:28.906Z,6.00
2023-02-19T08:33:46.602Z,5.90
2023-02-19T08:36:13.030Z,9.43
2023-02-19T08:38:28.927Z,9.43
2023-02-19T08:38:40.051Z,10.32
2023-02-19T08:41:08.135Z,5.75
2023-02-19T08:43:28.915Z,5.75
2023-02-19T08:43:35.137Z,8.23
2023-02-19T08:46:02.231Z,10.23
2023-02-19T08:48:28.964Z,5.45
2023-02-19T08:48:29.148Z,5.45
2023-02-19T08:50:57.920Z,5.35
2023-02-19T08:53:25.192Z,6.25
2023-02-19T08:53:28.913Z,6.25
2023-02-19T08:55:52.618Z,5.63
2023-02-19T08:58:19.077Z,6.47
2023-02-19T08:58:28.904Z,6.47
2023-02-19T09:00:45.408Z,4.80
2023-02-19T09:03:11.860Z,6.50
2023-02-19T09:03:28.940Z,6.50
2023-02-19T09:05:39.689Z,7.22
2023-02-19T09:08:06.220Z,5.90
2023-02-19T09:08:28.928Z,5.90
2023-02-19T09:10:32.662Z,8.40
2023-02-19T09:12:59.050Z,12.70
2023-02-19T09:13:28.910Z,12.70
2023-02-19T09:15:25.767Z,9.65
2023-02-19T09:17:53.032Z,6.18
2023-02-19T09:18:28.917Z,6.18
2023-02-19T09:20:19.947Z,5.80
2023-02-19T09:22:46.649Z,11.23
2023-02-19T09:23:28.897Z,11.23
2023-02-19T09:25:13.000Z,5.57
2023-02-19T09:27:39.394Z,11.90
2023-02-19T09:28:28.941Z,11.90
2023-02-19T09:30:06.293Z,12.82
2023-02-19T09:32:33.645Z,7.40
2023-02-19T09:33:28.930Z,7.40
2023-02-19T09:35:00.004Z,5.53
2023-02-19T09:37:27.649Z,5.90
2023-02-19T09:38:28.917Z,5.90
2023-02-19T09:39:54.976Z,5.30
2023-02-19T09:42:24.737Z,5.45
2023-02-19T09:43:28.918Z,5.45
2023-02-19T09:44:54.082Z,8.55
2023-02-19T09:47:23.240Z,5.78
2023-02-19T09:48:28.972Z,5.78
2023-02-19T09:49:59.682Z,5.07
2023-02-19T09:52:35.152Z,5.40
2023-02-19T09:53:28.925Z,5.40
2023-02-19T09:55:09.146Z,7.72
2023-02-19T09:57:36.475Z,5.32
2023-02-19T09:58:28.923Z,5.32
2023-02-19T10:00:12.178Z,4.63
2023-02-19T10:02:38.837Z,4.63
2023-02-19T10:03:28.919Z,4.63
2023-02-19T10:05:14.405Z,5.25
2023-02-19T10:07:47.810Z,6.30
2023-02-19T10:08:28.910Z,6.30
2023-02-19T10:10:14.080Z,5.95
2023-02-19T10:12:47.623Z,5.30
2023-02-19T10:13:29.005Z,5.30
2023-02-19T10:15:38.794Z,7.38
2023-02-19T10:18:08.840Z,8.88
2023-02-19T10:18:28.907Z,8.88
2023-02-19T10:20:37.605Z,4.97
2023-02-19T10:23:06.221Z,7.72
2023-02-19T10:23:28.979Z,7.72
2023-02-19T10:25:34.357Z,5.28
2023-02-19T10:28:02.198Z,5.00
2023-02-19T10:28:28.935Z,5.00
2023-02-19T10:30:34.687Z,6.97
2023-02-19T10:33:13.120Z,10.25
2023-02-19T10:33:28.913Z,10.25
2023-02-19T10:35:58.894Z,5.07
2023-02-19T10:38:31.366Z,5.75
2023-02-19T10:38:31.560Z,5.75
2023-02-19T10:41:06.076Z,6.50
2023-02-19T10:43:28.914Z,6.50
2023-02-19T10:43:36.977Z,5.90
2023-02-19T10:46:08.083Z,6.32
2023-02-19T10:48:28.937Z,6.32
2023-02-19T10:48:44.182Z,5.40
2023-02-19T10:51:13.570Z,5.57
2023-02-19T10:53:28.910Z,5.57
2023-02-19T10:53:48.799Z,5.78
2023-02-19T10:56:27.015Z,6.78
2023-02-19T10:58:28.915Z,6.78
2023-02-19T10:58:53.784Z,5.32
2023-02-19T11:01:22.756Z,7.57
2023-02-19T11:03:28.958Z,7.57
2023-02-19T11:03:51.452Z,6.18
2023-02-19T11:06:21.128Z,5.68
2023-02-19T11:08:28.914Z,5.68
2023-02-19T11:09:01.442Z,11.23
2023-02-19T11:11:29.954Z,6.32
2023-02-19T11:13:28.919Z,6.32
2023-02-19T11:14:00.633Z,5.63
2023-02-19T11:16:49.321Z,6.40
2023-02-19T11:18:28.969Z,6.40
2023-02-19T11:19:34.501Z,5.55
2023-02-19T11:22:01.711Z,6.10
2023-02-19T11:23:28.946Z,6.10
2023-02-19T11:24:37.112Z,6.00
2023-02-19T11:27:06.714Z,5.32
2023-02-19T11:28:28.945Z,5.32
2023-02-19T11:29:36.917Z,5.40
2023-02-19T11:32:26.275Z,5.72
2023-02-19T11:33:28.926Z,5.72
2023-02-19T11:35:13.240Z,6.63
2023-02-19T11:37:54.944Z,9.68
2023-02-19T11:38:28.930Z,9.68
2023-02-19T11:40:29.935Z,5.65
2023-02-19T11:43:16.584Z,7.00
2023-02-19T11:43:28.944Z,7.00
2023-02-19T11:46:18.179Z,16.40
2023-02-19T11:48:30.265Z,16.40
2023-02-19T11:49:07.115Z,5.45
2023-02-19T11:51:51.498Z,5.93
2023-02-19T11:53:28.958Z,5.93
2023-02-19T11:54:51.081Z,11.45
2023-02-19T11:57:37.670Z,5.97
2023-02-19T11:58:28.929Z,5.97
2023-02-19T12:00:30.962Z,11.48
2023-02-19T12:03:23.767Z,6.07
2023-02-19T12:03:28.947Z,6.07
2023-02-19T12:06:11.464Z,10.25
2023-02-19T12:08:28.932Z,10.25
2023-02-19T12:09:04.275Z,6.03
2023-02-19T12:11:30.908Z,5.68
2023-02-19T12:13:28.939Z,5.68
2023-02-19T12:14:19.338Z,5.78
2023-02-19T12:17:08.588Z,5.60
2023-02-19T12:18:28.976Z,5.60
2023-02-19T12:19:48.910Z,6.38
2023-02-19T12:22:29.378Z,6.07
2023-02-19T12:23:28.928Z,6.07
2023-02-19T12:25:01.140Z,5.10
2023-02-19T12:27:39.645Z,16.37
2023-02-19T12:28:28.988Z,16.37
2023-02-19T12:30:32.208Z,5.78
2023-02-19T12:33:26.993Z,5.07
2023-02-19T12:33:28.912Z,5.07
2023-02-19T12:36:11.776Z,5.38
2023-02-19T12:38:28.945Z,5.38
2023-02-19T12:38:50.831Z,5.50
2023-02-19T12:41:26.451Z,4.75
2023-02-19T12:43:28.968Z,4.75
2023-02-19T12:44:01.551Z,5.18
2023-02-19T12:46:43.691Z,5.43
2023-02-19T12:48:28.933Z,5.43
2023-02-19T12:49:19.018Z,4.70
2023-02-19T12:51:55.285Z,5.28
2023-02-19T12:53:28.937Z,5.28
2023-02-19T12:54:34.836Z,5.18
2023-02-19T12:57:06.222Z,5.10
2023-02-19T12:58:28.935Z,5.10
2023-02-19T12:59:48.776Z,7.93
2023-02-19T13:02:38.232Z,10.00
2023-02-19T13:03:28.982Z,10.00
2023-02-19T13:05:10.998Z,5.15
2023-02-19T13:07:45.536Z,4.43
2023-02-19T13:08:28.945Z,4.43
2023-02-19T13:10:33.866Z,6.18
2023-02-19T13:13:06.239Z,4.65
2023-02-19T13:13:28.967Z,4.65
2023-02-19T13:15:41.572Z,5.60
2023-02-19T13:18:17.249Z,6.60
2023-02-19T13:18:28.946Z,6.60
2023-02-19T13:20:46.630Z,7.65
2023-02-19T13:23:35.356Z,6.03
2023-02-19T13:23:35.476Z,6.03
2023-02-19T13:26:07.750Z,5.20
2023-02-19T13:28:29.004Z,5.20
2023-02-19T13:29:05.987Z,5.53
2023-02-19T13:32:09.614Z,5.47
2023-02-19T13:33:28.958Z,5.47
2023-02-19T13:34:54.941Z,5.38
2023-02-19T13:37:22.916Z,4.53
2023-02-19T13:38:28.990Z,4.53
2023-02-19T13:39:52.109Z,7.07
2023-02-19T13:42:33.118Z,13.60
2023-02-19T13:43:28.946Z,13.60
2023-02-19T13:45:01.851Z,4.80
2023-02-19T13:47:48.238Z,4.90
2023-02-19T13:48:28.966Z,4.90
2023-02-19T13:50:33.263Z,7.13
2023-02-19T13:53:01.583Z,6.15
2023-02-19T13:53:28.984Z,6.15
2023-02-19T13:55:44.114Z,8.18
2023-02-19T13:58:52.853Z,5.30
2023-02-19T13:58:52.999Z,5.30
2023-02-19T14:01:20.052Z,5.25
2023-02-19T14:03:28.963Z,5.25
2023-02-19T14:03:54.564Z,5.30
2023-02-19T14:06:21.537Z,4.70
2023-02-19T14:08:28.984Z,4.70
2023-02-19T14:08:52.565Z,5.28
2023-02-19T14:11:41.576Z,5.40
2023-02-19T14:13:28.964Z,5.40
2023-02-19T14:14:26.752Z,4.90
2023-02-19T14:17:09.605Z,4.88
2023-02-19T14:18:28.997Z,4.88
2023-02-19T14:22:45.959Z,5.13
2023-02-19T14:23:28.981Z,5.13
2023-02-19T14:25:24.502Z,4.93
2023-02-19T14:27:53.048Z,4.57
2023-02-19T14:28:29.008Z,4.57
2023-02-19T14:30:22.500Z,4.85
2023-02-19T14:32:54.588Z,4.95
2023-02-19T14:33:28.987Z,4.95
2023-02-19T14:35:47.596Z,4.82
2023-02-19T14:38:22.431Z,5.43
2023-02-19T14:38:28.961Z,5.43
2023-02-19T14:40:50.603Z,11.23
2023-02-19T14:43:19.657Z,13.15
2023-02-19T14:43:28.992Z,13.15
2023-02-19T14:46:00.330Z,5.22
2023-02-19T14:48:33.226Z,5.93
2023-02-19T14:48:33.373Z,5.93
2023-02-19T14:51:07.395Z,5.40
2023-02-19T14:53:28.964Z,5.40
2023-02-19T14:53:39.351Z,6.82
2023-02-19T14:56:07.678Z,6.43
2023-02-19T14:58:28.974Z,6.43
2023-02-19T14:58:34.313Z,6.20
2023-02-19T15:01:00.774Z,7.68
2023-02-19T15:03:36.368Z,12.40
2023-02-19T15:03:36.529Z,12.40
2023-02-19T15:06:06.667Z,13.43
2023-02-19T15:08:28.973Z,13.43
2023-02-19T15:08:39.255Z,6.43
2023-02-19T15:13:29.189Z,9.49
2023-02-19T15:13:37.448Z,6.88
2023-02-19T15:16:04.404Z,6.88
2023-02-19T15:18:29.138Z,6.88
2023-02-19T15:18:36.252Z,8.57
2023-02-19T15:21:05.581Z,6.55
2023-02-19T15:23:28.992Z,6.55
2023-02-19T15:23:34.284Z,6.18
2023-02-19T15:26:01.074Z,8.18
2023-02-19T15:28:32.582Z,6.05
2023-02-19T15:28:32.737Z,6.05
2023-02-19T15:30:58.983Z,5.55
2023-02-19T15:33:27.411Z,9.20
2023-02-19T15:33:29.000Z,9.20
2023-02-19T15:35:57.875Z,9.02
2023-02-19T15:38:25.536Z,5.72
2023-02-19T15:38:29.050Z,5.72
2023-02-19T15:40:53.005Z,5.80
2023-02-19T15:43:25.218Z,5.55
2023-02-19T15:43:28.997Z,5.55
2023-02-19T15:45:58.967Z,7.43
2023-02-19T15:48:37.604Z,15.98
2023-02-19T15:48:37.721Z,15.98
2023-02-19T15:51:11.267Z,8.38
2023-02-19T15:53:29.036Z,8.38
2023-02-19T15:53:48.854Z,6.20
2023-02-19T15:56:37.742Z,5.68
2023-02-19T15:58:28.999Z,5.68
2023-02-19T15:59:26.419Z,8.73
2023-02-19T16:01:53.341Z,9.77
2023-02-19T16:03:29.007Z,9.77
2023-02-19T16:04:20.058Z,8.15
2023-02-19T16:06:51.073Z,7.15
2023-02-19T16:08:30.877Z,7.15
2023-02-19T16:09:21.653Z,14.70
2023-02-19T16:11:53.384Z,15.55
2023-02-19T16:13:29.015Z,15.55
2023-02-19T16:14:37.091Z,13.33
2023-02-19T16:17:09.412Z,7.38
2023-02-19T16:18:28.992Z,7.38
2023-02-19T16:19:57.766Z,6.60
2023-02-19T16:22:27.295Z,7.30
2023-02-19T16:23:29.015Z,7.30
2023-02-19T16:24:58.535Z,5.80
2023-02-19T16:27:37.338Z,11.32
2023-02-19T16:28:29.006Z,11.32
2023-02-19T16:30:25.633Z,16.40
2023-02-19T16:33:21.509Z,5.95
2023-02-19T16:33:28.996Z,5.95
2023-02-19T16:35:49.604Z,7.53
2023-02-19T16:38:17.165Z,7.13
2023-02-19T16:38:29.018Z,7.13
2023-02-19T16:41:07.064Z,9.73
2023-02-19T16:43:28.989Z,9.73
2023-02-19T16:43:42.646Z,7.05
2023-02-19T16:46:13.604Z,7.88
2023-02-19T16:48:29.008Z,7.88
2023-02-19T16:48:40.012Z,7.05
2023-02-19T16:51:08.121Z,5.82
2023-02-19T16:53:29.049Z,5.82
2023-02-19T16:53:35.161Z,6.05
2023-02-19T16:56:01.880Z,11.13
2023-02-19T16:58:28.219Z,5.45
2023-02-19T16:58:28.994Z,5.45
2023-02-19T17:00:54.774Z,5.75
2023-02-19T17:03:23.994Z,6.40
2023-02-19T17:03:28.991Z,6.40
2023-02-19T17:05:50.812Z,5.07
2023-02-19T17:08:37.043Z,9.88
2023-02-19T17:08:37.195Z,9.88
2023-02-19T17:11:06.785Z,7.70
2023-02-19T17:13:28.986Z,7.70
2023-02-19T17:13:33.254Z,4.50
2023-02-19T17:16:00.270Z,4.57
2023-02-19T17:18:27.366Z,4.68
2023-02-19T17:18:29.004Z,4.68
2023-02-19T17:20:58.584Z,6.00
2023-02-19T17:23:24.996Z,4.50
2023-02-19T17:23:29.034Z,4.50
2023-02-19T17:25:51.416Z,4.07
2023-02-19T17:28:17.896Z,4.10
2023-02-19T17:28:29.018Z,4.10
2023-02-19T17:30:44.350Z,4.20
2023-02-19T17:33:10.752Z,4.07
2023-02-19T17:33:29.013Z,4.07
2023-02-19T17:35:37.333Z,5.68
2023-02-19T17:38:09.432Z,4.18
2023-02-19T17:38:28.995Z,4.18
2023-02-19T17:40:37.252Z,4.38
2023-02-19T17:43:04.810Z,3.90
2023-02-19T17:43:29.035Z,3.90
2023-02-19T17:45:31.354Z,4.10
2023-02-19T17:47:57.877Z,4.25
2023-02-19T17:48:29.013Z,4.25
2023-02-19T17:50:27.645Z,4.20
2023-02-19T17:52:54.197Z,4.20
2023-02-19T17:53:29.032Z,4.20
2023-02-19T17:55:20.879Z,3.97
2023-02-19T17:57:49.267Z,3.72
2023-02-19T17:58:29.033Z,3.72
2023-02-19T18:00:18.646Z,3.60
2023-02-19T18:02:45.101Z,4.20
2023-02-19T18:03:29.020Z,4.20
2023-02-19T18:05:11.724Z,3.80
2023-02-19T18:07:38.663Z,3.72
2023-02-19T18:08:29.049Z,3.72
2023-02-19T18:10:06.442Z,3.95
2023-02-19T18:12:33.004Z,3.65
2023-02-19T18:13:29.011Z,3.65
2023-02-19T18:14:59.433Z,4.00
2023-02-19T18:17:26.402Z,3.67
2023-02-19T18:18:29.063Z,3.67
2023-02-19T18:19:54.038Z,4.38
2023-02-19T18:22:20.970Z,4.00
2023-02-19T18:23:29.016Z,4.00
2023-02-19T18:24:48.947Z,4.38
2023-02-19T18:27:16.589Z,3.90
2023-02-19T18:28:29.019Z,3.90
2023-02-19T18:29:42.991Z,4.43
2023-02-19T18:32:09.581Z,3.90
2023-02-19T18:33:29.025Z,3.90
2023-02-19T18:34:36.079Z,3.83
2023-02-19T18:37:02.580Z,3.80
2023-02-19T18:38:29.053Z,3.80
2023-02-19T18:39:28.964Z,4.05
2023-02-19T18:41:57.672Z,8.18
2023-02-19T18:43:29.052Z,8.18
2023-02-19T18:44:25.447Z,4.10
2023-02-19T18:46:52.525Z,5.63
2023-02-19T18:48:29.024Z,5.63
2023-02-19T18:49:19.293Z,4.60
2023-02-19T18:51:46.959Z,5.28
2023-02-19T18:53:31.284Z,5.28
2023-02-19T18:54:13.398Z,3.95
2023-02-19T18:56:42.206Z,4.68
2023-02-19T18:58:29.023Z,4.68
2023-02-19T18:59:08.714Z,5.38
2023-02-19T19:01:35.177Z,3.72
2023-02-19T19:03:29.036Z,3.72
2023-02-19T19:04:01.670Z,4.15
2023-02-19T19:06:28.332Z,3.60
2023-02-19T19:08:30.680Z,3.60
2023-02-19T19:08:54.789Z,4.32
2023-02-19T19:11:22.571Z,4.00
2023-02-19T19:13:29.056Z,4.00
2023-02-19T19:13:48.974Z,4.43
2023-02-19T19:16:43.296Z,12.85
2023-02-19T19:18:29.009Z,12.85
2023-02-19T19:19:15.718Z,4.07
2023-02-19T19:21:42.097Z,3.95
2023-02-19T19:23:29.250Z,3.95
2023-02-19T19:24:09.052Z,3.83
2023-02-19T19:26:35.796Z,3.90
2023-02-19T19:28:29.034Z,3.90
2023-02-19T19:29:02.282Z,3.60
2023-02-19T19:31:35.908Z,4.10
2023-02-19T19:33:29.043Z,4.10
2023-02-19T19:34:03.048Z,3.90
2023-02-19T19:36:29.760Z,3.70
2023-02-19T19:38:29.052Z,3.70
2023-02-19T19:38:56.154Z,4.05
2023-02-19T19:41:22.577Z,3.67
2023-02-19T19:43:29.032Z,3.67
2023-02-19T19:43:48.933Z,4.15
2023-02-19T19:46:19.035Z,4.00
2023-02-19T19:48:29.019Z,4.00
2023-02-19T19:48:49.744Z,4.22
2023-02-19T19:51:17.121Z,4.00
2023-02-19T19:53:29.048Z,4.00
2023-02-19T19:53:47.030Z,4.35
2023-02-19T19:56:13.480Z,4.05
2023-02-19T19:58:29.026Z,4.05
2023-02-19T19:58:42.650Z,4.25
2023-02-19T20:01:09.046Z,3.50
2023-02-19T20:03:29.044Z,3.50
2023-02-19T20:03:35.416Z,3.58
2023-02-19T20:06:01.787Z,3.88
2023-02-19T20:08:28.171Z,3.58
2023-02-19T20:08:29.048Z,3.58
2023-02-19T20:10:54.595Z,3.85
2023-02-19T20:13:26.386Z,3.40
2023-02-19T20:13:29.091Z,3.40
2023-02-19T20:15:52.922Z,3.60
2023-02-19T20:18:20.721Z,3.47
2023-02-19T20:18:29.024Z,3.47
2023-02-19T20:20:47.535Z,3.92
2023-02-19T20:23:13.971Z,3.53
2023-02-19T20:23:29.043Z,3.53
2023-02-19T20:25:40.381Z,4.13
2023-02-19T20:28:06.764Z,3.85
2023-02-19T20:28:29.073Z,3.85
2023-02-19T20:30:33.154Z,3.58
2023-02-19T20:32:59.572Z,3.90
2023-02-19T20:33:29.051Z,3.90
2023-02-19T20:35:28.542Z,3.88
2023-02-19T20:37:55.652Z,3.70
2023-02-19T20:38:29.041Z,3.70
2023-02-19T20:40:27.285Z,3.70
2023-02-19T20:42:53.949Z,3.90
2023-02-19T20:43:29.046Z,3.90
2023-02-19T20:45:20.344Z,4.03
2023-02-19T20:47:47.824Z,4.25
2023-02-19T20:48:29.057Z,4.25
2023-02-19T20:50:17.305Z,7.13
2023-02-19T20:52:43.813Z,3.78
2023-02-19T20:53:29.041Z,3.78
2023-02-19T20:55:10.367Z,4.03
2023-02-19T20:57:37.460Z,4.00
2023-02-19T20:58:29.032Z,4.00
2023-02-19T21:00:06.090Z,3.70
2023-02-19T21:02:32.626Z,4.10
2023-02-19T21:03:29.047Z,4.10
2023-02-19T21:04:59.711Z,3.95
2023-02-19T21:07:26.680Z,3.80
2023-02-19T21:08:29.049Z,3.80
2023-02-19T21:09:53.774Z,3.70
2023-02-19T21:12:21.472Z,3.70
2023-02-19T21:13:30.202Z,3.70
2023-02-19T21:14:48.009Z,3.75
2023-02-19T21:17:14.868Z,3.30
2023-02-19T21:18:29.043Z,3.30
2023-02-19T21:19:41.442Z,3.30
2023-02-19T21:22:07.807Z,4.00
2023-02-19T21:23:29.048Z,4.00
2023-02-19T21:24:34.152Z,3.53
2023-02-19T21:27:00.616Z,3.60
2023-02-19T21:28:29.055Z,3.60
2023-02-19T21:29:27.741Z,3.40
2023-02-19T21:31:56.325Z,4.05
2023-02-19T21:33:29.030Z,4.05
2023-02-19T21:34:25.725Z,4.35
2023-02-19T21:36:53.482Z,4.00
2023-02-19T21:38:29.056Z,4.00
2023-02-19T21:39:21.848Z,3.42
2023-02-19T21:41:48.571Z,5.32
2023-02-19T21:43:29.030Z,5.32
2023-02-19T21:44:15.328Z,3.90
2023-02-19T21:46:41.904Z,3.42
2023-02-19T21:48:29.039Z,3.42
2023-02-19T21:49:08.422Z,3.60
2023-02-19T21:51:37.707Z,3.30
2023-02-19T21:53:29.063Z,3.30
2023-02-19T21:54:05.680Z,3.30
2023-02-19T21:56:36.107Z,3.50
2023-02-19T21:58:29.057Z,3.50
2023-02-19T21:59:02.911Z,3.80
2023-02-19T22:01:31.410Z,3.80
2023-02-19T22:03:29.051Z,3.80
2023-02-19T22:03:58.302Z,3.65
2023-02-19T22:06:29.032Z,3.20
2023-02-19T22:08:29.051Z,3.20
2023-02-19T22:08:55.973Z,4.32
2023-02-19T22:11:22.707Z,3.88
2023-02-19T22:13:29.033Z,3.88
2023-02-19T22:13:49.370Z,4.18
2023-02-19T22:16:15.814Z,3.80
2023-02-19T22:18:29.058Z,3.80
2023-02-19T22:18:50.597Z,3.97
2023-02-19T22:21:17.410Z,4.13